createdAt,value
2022-08-05T00:01:49.551Z,23.71
2022-08-05T00:04:18.540Z,23.69
2022-08-05T00:06:51.705Z,23.68
2022-08-05T00:09:22.028Z,23.66
2022-08-05T00:11:56.117Z,23.65
2022-08-05T00:14:31.355Z,23.64
2022-08-05T00:17:01.907Z,23.60
2022-08-05T00:19:45.524Z,23.60
2022-08-05T00:22:33.047Z,23.61
2022-08-05T00:25:03.665Z,23.59
2022-08-05T00:27:42.826Z,23.57
2022-08-05T00:30:16.398Z,23.54
2022-08-05T00:32:44.176Z,23.54
2022-08-05T00:35:23.828Z,23.55
2022-08-05T00:38:11.340Z,23.54
2022-08-05T00:40:53.672Z,23.52
2022-08-05T00:43:24.610Z,23.52
2022-08-05T00:46:02.010Z,23.51
2022-08-05T00:48:33.281Z,23.52
2022-08-05T00:51:51.194Z,23.52
2022-08-05T00:54:19.805Z,23.53
2022-08-05T00:56:51.633Z,23.53
2022-08-05T00:59:25.465Z,23.52
2022-08-05T01:02:05.235Z,23.52
2022-08-05T01:04:42.151Z,23.54
2022-08-05T01:07:14.652Z,23.55
2022-08-05T01:09:55.552Z,23.56
2022-08-05T01:12:23.752Z,23.55
2022-08-05T01:15:18.703Z,23.56
2022-08-05T01:18:01.023Z,23.56
2022-08-05T01:20:47.679Z,23.55
2022-08-05T01:23:25.778Z,23.58
2022-08-05T01:26:21.239Z,23.58
2022-08-05T01:28:56.737Z,23.61
2022-08-05T01:31:44.518Z,23.61
2022-08-05T01:34:32.223Z,23.61
2022-08-05T01:37:24.387Z,23.62
2022-08-05T01:39:58.933Z,23.63
2022-08-05T01:42:35.367Z,23.65
2022-08-05T01:45:08.480Z,23.68
2022-08-05T01:47:39.578Z,23.69
2022-08-05T01:50:17.307Z,23.72
2022-08-05T01:52:52.438Z,23.73
2022-08-05T01:55:24.426Z,23.74
2022-08-05T01:58:12.461Z,23.74
2022-08-05T02:00:55.709Z,23.76
2022-08-05T02:03:36.434Z,23.77
2022-08-05T02:06:33.587Z,23.78
2022-08-05T02:08:59.044Z,23.80
2022-08-05T02:11:47.048Z,23.79
2022-08-05T02:14:22.771Z,23.81
2022-08-05T02:16:58.107Z,23.81
2022-08-05T02:19:34.575Z,23.80
2022-08-05T02:22:25.493Z,23.81
2022-08-05T02:24:57.781Z,23.81
2022-08-05T02:27:58.281Z,23.83
2022-08-05T02:30:30.994Z,23.85
2022-08-05T02:33:01.220Z,23.87
2022-08-05T02:35:33.306Z,23.90
2022-08-05T02:38:11.148Z,23.91
2022-08-05T02:40:46.927Z,23.93
2022-08-05T02:43:17.858Z,23.93
2022-08-05T02:45:52.129Z,23.94
2022-08-05T02:48:22.041Z,23.97
2022-08-05T02:51:00.895Z,23.98
2022-08-05T02:53:35.895Z,24.01
2022-08-05T02:56:15.784Z,24.01
2022-08-05T02:58:52.565Z,24.05
2022-08-05T03:01:22.199Z,24.10
2022-08-05T03:04:02.733Z,24.16
2022-08-05T03:06:53.763Z,24.22
2022-08-05T03:09:37.554Z,24.26
2022-08-05T03:12:07.870Z,24.33
2022-08-05T03:14:45.737Z,24.38
2022-08-05T03:17:23.587Z,24.43
2022-08-05T03:19:58.508Z,24.46
2022-08-05T03:22:32.129Z,24.51
2022-08-05T03:25:11.787Z,24.57
2022-08-05T03:27:59.225Z,24.61
2022-08-05T03:30:33.622Z,24.69
2022-08-05T03:33:07.967Z,24.72
2022-08-05T03:35:41.225Z,24.71
2022-08-05T03:38:12.620Z,24.73
2022-08-05T03:40:47.533Z,24.74
2022-08-05T03:44:10.016Z,24.75
2022-08-05T03:46:15.461Z,24.74
2022-08-05T03:48:54.204Z,24.77
2022-08-05T03:52:37.935Z,24.73
2022-08-05T03:55:50.559Z,24.75
2022-08-05T03:57:29.102Z,24.78
2022-08-05T04:00:16.686Z,24.81
2022-08-05T04:02:57.737Z,24.84
2022-08-05T04:05:33.566Z,24.84
2022-08-05T04:08:34.747Z,24.84
2022-08-05T04:11:10.012Z,24.84
2022-08-05T04:13:50.992Z,24.85
2022-08-05T04:16:24.235Z,24.85
2022-08-05T04:18:58.260Z,24.86
2022-08-05T04:22:08.358Z,24.86
2022-08-05T04:24:22.478Z,24.84
2022-08-05T04:26:51.177Z,24.85
2022-08-05T04:29:19.034Z,24.84
2022-08-05T04:31:48.531Z,24.84
2022-08-05T04:34:33.363Z,24.85
2022-08-05T04:37:06.866Z,24.88
2022-08-05T04:39:35.741Z,24.87
2022-08-05T04:42:06.794Z,24.89
2022-08-05T04:44:34.577Z,24.88
2022-08-05T04:47:09.138Z,24.89
2022-08-05T04:50:02.152Z,24.88
2022-08-05T04:52:34.539Z,24.87
2022-08-05T04:55:13.772Z,24.84
2022-08-05T04:57:48.007Z,24.83
2022-08-05T05:00:24.615Z,24.79
2022-08-05T05:02:56.573Z,24.77
2022-08-05T05:05:28.755Z,24.77
2022-08-05T05:08:01.602Z,24.76
2022-08-05T05:10:55.776Z,24.74
2022-08-05T05:13:24.366Z,24.69
2022-08-05T05:16:01.911Z,24.68
2022-08-05T05:18:38.960Z,24.69
2022-08-05T05:21:06.926Z,24.72
2022-08-05T05:23:39.028Z,24.76
2022-08-05T05:26:28.880Z,24.79
2022-08-05T05:29:14.293Z,24.80
2022-08-05T05:31:42.999Z,24.81
2022-08-05T05:34:14.176Z,24.80
2022-08-05T05:36:43.866Z,24.81
2022-08-05T05:39:19.134Z,24.82
2022-08-05T05:41:54.282Z,24.84
2022-08-05T05:44:36.923Z,24.84
2022-08-05T05:47:13.260Z,24.84
2022-08-05T05:49:56.593Z,24.85
2022-08-05T05:52:37.895Z,24.84
2022-08-05T05:55:13.125Z,24.84
2022-08-05T05:57:51.994Z,24.87
2022-08-05T06:00:21.161Z,24.88
2022-08-05T06:02:55.594Z,24.86
2022-08-05T06:05:23.737Z,24.87
2022-08-05T06:07:58.048Z,24.86
2022-08-05T06:10:34.470Z,24.86
2022-08-05T06:13:05.010Z,24.89
2022-08-05T06:16:29.448Z,24.90
2022-08-05T06:18:31.073Z,24.91
2022-08-05T06:20:59.304Z,24.92
2022-08-05T06:23:27.113Z,24.93
2022-08-05T06:26:13.600Z,24.96
2022-08-05T06:28:56.639Z,25.00
2022-08-05T06:31:30.458Z,25.05
2022-08-05T06:34:07.530Z,25.10
2022-08-05T06:36:57.238Z,25.16
2022-08-05T06:39:35.014Z,25.19
2022-08-05T06:42:08.046Z,25.27
2022-08-05T06:44:35.930Z,25.30
2022-08-05T06:47:13.377Z,25.30
2022-08-05T06:50:00.211Z,25.32
2022-08-05T06:52:40.360Z,25.35
2022-08-05T06:55:11.592Z,25.31
2022-08-05T06:58:03.108Z,25.34
2022-08-05T07:00:38.295Z,25.36
2022-08-05T07:03:14.030Z,25.39
2022-08-05T07:05:44.581Z,25.44
2022-08-05T07:08:19.922Z,25.51
2022-08-05T07:10:55.546Z,25.61
2022-08-05T07:13:57.946Z,25.75
2022-08-05T07:18:02.279Z,25.89
2022-08-05T07:22:34.609Z,26.24
2022-08-05T07:25:23.376Z,26.39
2022-08-05T07:27:58.017Z,26.46
2022-08-05T07:30:38.995Z,26.56
2022-08-05T07:33:15.921Z,26.66
2022-08-05T07:36:02.437Z,26.77
2022-08-05T07:38:43.150Z,26.83
2022-08-05T07:42:08.235Z,26.93
2022-08-05T07:44:14.258Z,27.07
2022-08-05T07:46:48.383Z,27.28
2022-08-05T07:49:22.313Z,27.50
2022-08-05T07:51:54.532Z,27.59
2022-08-05T07:54:31.112Z,27.70
2022-08-05T07:57:22.580Z,27.89
2022-08-05T07:59:48.982Z,28.06
2022-08-05T08:02:21.189Z,28.24
2022-08-05T08:04:55.038Z,28.40
2022-08-05T08:07:23.640Z,28.56
2022-08-05T08:09:57.765Z,28.70
2022-08-05T08:12:49.227Z,28.82
2022-08-05T08:16:35.877Z,28.97
2022-08-05T08:18:14.341Z,28.91
2022-08-05T08:21:02.242Z,28.99
2022-08-05T08:24:03.054Z,29.08
2022-08-05T08:26:26.716Z,29.19
2022-08-05T08:29:21.780Z,29.27
2022-08-05T08:31:52.232Z,29.26
2022-08-05T08:34:30.557Z,29.19
2022-08-05T08:37:09.378Z,29.18
2022-08-05T08:39:49.673Z,29.37
2022-08-05T08:42:34.584Z,29.51
2022-08-05T08:45:18.096Z,29.53
2022-08-05T08:48:12.805Z,29.56
2022-08-05T08:51:03.978Z,29.54
2022-08-05T08:53:45.112Z,29.66
2022-08-05T08:56:15.755Z,29.76
2022-08-05T08:58:53.151Z,29.94
2022-08-05T09:01:27.018Z,30.07
2022-08-05T09:03:58.602Z,30.05
2022-08-05T09:06:30.683Z,30.16
2022-08-05T09:09:09.575Z,30.34
2022-08-05T09:11:50.983Z,30.37
2022-08-05T09:14:56.937Z,30.44
2022-08-05T09:17:42.860Z,30.69
2022-08-05T09:20:08.702Z,30.83
2022-08-05T09:23:07.518Z,30.91
2022-08-05T09:25:59.785Z,31.02
2022-08-05T09:28:36.030Z,31.11
2022-08-05T09:31:44.095Z,31.30
2022-08-05T09:34:05.163Z,31.34
2022-08-05T09:36:54.323Z,31.43
2022-08-05T09:39:41.880Z,31.45
2022-08-05T09:42:23.532Z,31.45
2022-08-05T09:46:04.774Z,31.40
2022-08-05T09:48:00.490Z,31.43
2022-08-05T09:50:44.866Z,31.60
2022-08-05T09:53:23.140Z,31.54
2022-08-05T09:56:12.647Z,31.63
2022-08-05T09:58:42.022Z,31.61
2022-08-05T10:01:22.487Z,31.62
2022-08-05T10:04:13.577Z,31.64
2022-08-05T10:07:01.662Z,31.53
2022-08-05T10:10:14.499Z,31.44
2022-08-05T10:12:57.232Z,31.49
2022-08-05T10:15:34.143Z,31.44
2022-08-05T10:18:18.950Z,31.43
2022-08-05T10:21:06.295Z,31.37
2022-08-05T10:23:59.924Z,31.42
2022-08-05T10:26:32.614Z,31.47
2022-08-05T10:29:08.811Z,31.55
2022-08-05T10:32:54.346Z,31.64
2022-08-05T10:34:34.914Z,31.66
2022-08-05T10:37:07.215Z,31.76
2022-08-05T10:39:59.417Z,31.85
2022-08-05T10:42:34.065Z,32.04
2022-08-05T10:45:02.353Z,32.16
2022-08-05T10:48:31.062Z,32.21
2022-08-05T10:51:22.519Z,32.26
2022-08-05T10:54:05.896Z,32.25
2022-08-05T10:56:57.928Z,32.23
2022-08-05T11:00:04.398Z,32.32
2022-08-05T11:02:34.558Z,32.30
2022-08-05T11:05:08.694Z,32.47
2022-08-05T11:08:01.111Z,32.54
2022-08-05T11:10:29.996Z,32.64
2022-08-05T11:12:58.591Z,32.83
2022-08-05T11:15:58.894Z,32.85
2022-08-05T11:18:38.022Z,32.72
2022-08-05T11:21:48.773Z,32.63
2022-08-05T11:24:30.826Z,32.67
2022-08-05T11:27:37.060Z,32.78
2022-08-05T11:30:20.360Z,32.86
2022-08-05T11:32:48.263Z,32.92
2022-08-05T11:36:04.419Z,32.93
2022-08-05T11:38:51.892Z,32.96
2022-08-05T11:41:56.377Z,32.93
2022-08-05T11:44:53.103Z,32.80
2022-08-05T11:47:19.937Z,32.99
2022-08-05T11:49:55.286Z,33.07
2022-08-05T11:52:31.203Z,33.14
2022-08-05T11:55:07.639Z,33.08
2022-08-05T11:58:10.833Z,33.18
2022-08-05T12:00:38.115Z,33.32
2022-08-05T12:03:29.681Z,33.37
2022-08-05T12:06:10.149Z,33.43
2022-08-05T12:08:55.510Z,33.41
2022-08-05T12:11:40.621Z,33.60
2022-08-05T12:14:15.095Z,33.61
2022-08-05T12:16:50.704Z,33.54
2022-08-05T12:20:17.235Z,33.51
2022-08-05T12:22:10.308Z,33.62
2022-08-05T12:24:49.599Z,33.71
2022-08-05T12:27:53.216Z,33.70
2022-08-05T12:30:32.180Z,33.61
2022-08-05T12:33:27.943Z,33.53
2022-08-05T12:36:16.307Z,33.51
2022-08-05T12:38:44.498Z,33.58
2022-08-05T12:41:18.549Z,33.66
2022-08-05T12:43:59.023Z,33.68
2022-08-05T12:46:29.369Z,33.69
2022-08-05T12:49:13.923Z,33.76
2022-08-05T12:52:13.080Z,33.71
2022-08-05T12:54:43.229Z,33.66
2022-08-05T12:57:13.176Z,33.79
2022-08-05T13:01:58.320Z,33.89
2022-08-05T13:02:50.997Z,33.95
2022-08-05T13:05:37.482Z,34.00
2022-08-05T13:08:06.541Z,34.00
2022-08-05T13:10:48.790Z,34.03
2022-08-05T13:14:06.514Z,34.03
2022-08-05T13:16:16.765Z,34.04
2022-08-05T13:18:58.627Z,34.10
2022-08-05T13:21:27.702Z,34.22
2022-08-05T13:23:56.758Z,34.28
2022-08-05T13:26:29.811Z,34.35
2022-08-05T13:28:58.995Z,34.42
2022-08-05T13:31:33.929Z,34.48
2022-08-05T13:34:24.286Z,34.44
2022-08-05T13:36:54.319Z,34.54
2022-08-05T13:40:13.176Z,34.50
2022-08-05T13:42:16.259Z,34.52
2022-08-05T13:44:47.300Z,34.51
2022-08-05T13:47:36.005Z,34.52
2022-08-05T13:50:12.475Z,34.55
2022-08-05T13:52:44.189Z,34.48
2022-08-05T13:55:41.041Z,34.52
2022-08-05T13:58:15.141Z,34.53
2022-08-05T14:01:01.087Z,34.44
2022-08-05T14:03:30.302Z,34.36
2022-08-05T14:06:26.349Z,34.26
2022-08-05T14:08:56.015Z,34.05
2022-08-05T14:11:32.309Z,33.98
2022-08-05T14:14:32.293Z,34.04
2022-08-05T14:17:05.606Z,33.91
2022-08-05T14:19:55.209Z,33.77
2022-08-05T14:22:30.112Z,33.70
2022-08-05T14:25:01.500Z,33.68
2022-08-05T14:27:47.362Z,33.59
2022-08-05T14:30:20.621Z,33.45
2022-08-05T14:32:54.798Z,33.36
2022-08-05T14:35:50.487Z,33.24
2022-08-05T14:38:33.186Z,33.21
2022-08-05T14:41:07.446Z,33.13
2022-08-05T14:43:53.904Z,33.03
2022-08-05T14:46:30.826Z,32.96
2022-08-05T14:49:06.297Z,32.82
2022-08-05T14:51:37.673Z,32.76
2022-08-05T14:54:27.465Z,32.65
2022-08-05T14:57:05.171Z,32.62
2022-08-05T14:59:43.134Z,32.53
2022-08-05T15:02:15.781Z,32.43
2022-08-05T15:05:00.905Z,32.36
2022-08-05T15:08:08.938Z,32.34
2022-08-05T15:10:35.611Z,32.33
2022-08-05T15:13:10.115Z,32.28
2022-08-05T15:15:55.076Z,32.26
2022-08-05T15:18:29.383Z,32.15
2022-08-05T15:21:07.455Z,32.11
2022-08-05T15:23:38.382Z,32.10
2022-08-05T15:26:16.682Z,32.11
2022-08-05T15:29:02.482Z,32.11
2022-08-05T15:31:35.769Z,32.11
2022-08-05T15:34:31.369Z,32.11
2022-08-05T15:36:54.841Z,32.13
2022-08-05T15:41:02.956Z,32.10
2022-08-05T15:42:54.731Z,32.08
2022-08-05T15:45:06.513Z,32.07
2022-08-05T15:47:35.708Z,32.02
2022-08-05T15:50:04.072Z,32.02
2022-08-05T15:52:54.558Z,31.99
2022-08-05T15:56:02.241Z,31.95
2022-08-05T15:58:17.641Z,31.92
2022-08-05T16:00:57.038Z,31.87
2022-08-05T16:03:43.421Z,31.86
2022-08-05T16:06:14.213Z,31.81
2022-08-05T16:08:53.801Z,31.80
2022-08-05T16:11:40.095Z,31.78
2022-08-05T16:14:17.048Z,31.80
2022-08-05T16:16:46.025Z,31.77
2022-08-05T16:19:25.278Z,31.74
2022-08-05T16:22:03.594Z,31.73
2022-08-05T16:24:41.668Z,31.73
2022-08-05T16:27:19.040Z,31.73
2022-08-05T16:29:51.241Z,31.70
2022-08-05T16:32:28.737Z,31.68
2022-08-05T16:35:01.080Z,31.66
2022-08-05T16:38:16.827Z,31.67
2022-08-05T16:40:29.229Z,31.66
2022-08-05T16:43:00.491Z,31.65
2022-08-05T16:46:06.566Z,31.62
2022-08-05T16:48:33.552Z,31.60
2022-08-05T16:51:13.690Z,31.50
2022-08-05T16:54:05.727Z,31.44
2022-08-05T16:56:32.413Z,31.39
2022-08-05T16:59:03.143Z,31.37
2022-08-05T17:01:53.256Z,31.33
2022-08-05T17:04:26.478Z,31.32
2022-08-05T17:06:56.959Z,31.27
2022-08-05T17:09:38.772Z,31.17
2022-08-05T17:12:22.670Z,31.02
2022-08-05T17:15:09.939Z,30.94
2022-08-05T17:17:54.524Z,30.81
2022-08-05T17:20:26.591Z,30.77
2022-08-05T17:22:55.275Z,30.71
2022-08-05T17:25:39.434Z,30.64
2022-08-05T17:28:09.337Z,30.54
2022-08-05T17:30:50.424Z,30.33
2022-08-05T17:33:20.306Z,30.11
2022-08-05T17:36:07.717Z,29.89
2022-08-05T17:38:42.521Z,29.64
2022-08-05T17:41:22.983Z,29.51
2022-08-05T17:44:01.903Z,29.31
2022-08-05T17:46:32.690Z,29.18
2022-08-05T17:49:01.147Z,29.06
2022-08-05T17:51:29.107Z,28.94
2022-08-05T17:54:13.331Z,28.82
2022-08-05T17:56:51.193Z,28.69
2022-08-05T17:59:21.002Z,28.56
2022-08-05T18:01:50.677Z,28.38
2022-08-05T18:04:27.231Z,28.29
2022-08-05T18:07:01.858Z,28.17
2022-08-05T18:10:00.032Z,28.00
2022-08-05T18:12:24.111Z,27.79
2022-08-05T18:14:55.988Z,27.56
2022-08-05T18:17:59.194Z,27.23
2022-08-05T18:20:19.693Z,26.94
2022-08-05T18:22:57.785Z,26.59
2022-08-05T18:25:33.170Z,26.16
2022-08-05T18:28:01.682Z,25.48
2022-08-05T18:30:35.475Z,24.20
2022-08-05T18:33:07.577Z,23.00
2022-08-05T18:35:59.770Z,22.10
2022-08-05T18:38:31.756Z,21.71
2022-08-05T18:42:00.720Z,21.50
2022-08-05T18:43:48.739Z,21.31
2022-08-05T18:46:20.672Z,21.05
2022-08-05T18:48:52.773Z,20.76
2022-08-05T18:52:04.970Z,20.64
2022-08-05T18:54:36.163Z,20.58
2022-08-05T18:57:10.755Z,20.51
2022-08-05T19:00:02.478Z,20.39
2022-08-05T19:02:37.351Z,20.32
2022-08-05T19:06:05.512Z,20.29
2022-08-05T19:08:00.998Z,20.26
2022-08-05T19:10:34.909Z,20.24
2022-08-05T19:13:05.584Z,20.18
2022-08-05T19:15:57.333Z,20.14
2022-08-05T19:18:30.234Z,20.12
2022-08-05T19:21:06.759Z,20.06
2022-08-05T19:24:07.124Z,20.09
2022-08-05T19:26:23.535Z,20.14
2022-08-05T19:28:53.221Z,20.10
2022-08-05T19:31:21.541Z,20.05
2022-08-05T19:33:58.666Z,20.01
2022-08-05T19:36:27.093Z,20.02
2022-08-05T19:39:00.866Z,20.01
2022-08-05T19:41:58.107Z,19.98
2022-08-05T19:44:23.836Z,20.00
2022-08-05T19:46:59.877Z,19.95
2022-08-05T19:49:27.834Z,19.90
2022-08-05T19:52:13.326Z,19.91
2022-08-05T19:54:44.285Z,19.93
2022-08-05T19:57:13.075Z,19.93
2022-08-05T19:59:55.935Z,19.95
2022-08-05T20:02:31.662Z,20.01
2022-08-05T20:05:04.913Z,19.99
2022-08-05T20:07:47.820Z,20.04
2022-08-05T20:10:16.756Z,20.04
2022-08-05T20:12:49.229Z,20.01
2022-08-05T20:15:23.129Z,20.04
2022-08-05T20:18:10.304Z,20.06
2022-08-05T20:20:56.908Z,20.14
2022-08-05T20:23:40.569Z,20.09
2022-08-05T20:26:25.730Z,20.05
2022-08-05T20:28:55.729Z,20.01
2022-08-05T20:31:37.611Z,19.98
2022-08-05T20:34:18.337Z,19.98
2022-08-05T20:36:47.849Z,19.96
2022-08-05T20:39:16.609Z,19.97
2022-08-05T20:41:45.447Z,19.97
2022-08-05T20:44:28.737Z,19.97
2022-08-05T20:47:03.202Z,19.98
2022-08-05T20:49:39.476Z,19.95
2022-08-05T20:52:07.848Z,19.92
2022-08-05T20:54:43.142Z,19.91
2022-08-05T20:57:43.700Z,19.91
2022-08-05T21:00:40.709Z,19.93
2022-08-05T21:03:06.889Z,20.02
2022-08-05T21:05:48.067Z,20.03
2022-08-05T21:08:26.515Z,20.01
2022-08-05T21:11:10.324Z,20.01
2022-08-05T21:13:48.150Z,19.98
2022-08-05T21:16:29.978Z,19.94
2022-08-05T21:19:02.001Z,19.92
2022-08-05T21:21:39.305Z,19.95
2022-08-05T21:24:08.588Z,19.93
2022-08-05T21:26:41.443Z,19.94
2022-08-05T21:29:16.799Z,19.97
2022-08-05T21:31:46.054Z,20.03
2022-08-05T21:34:13.872Z,20.10
2022-08-05T21:36:42.310Z,20.10
2022-08-05T21:39:14.399Z,20.15
2022-08-05T21:41:52.876Z,20.12
2022-08-05T21:44:29.186Z,20.10
2022-08-05T21:46:58.195Z,20.11
2022-08-05T21:49:48.136Z,20.14
2022-08-05T21:52:21.487Z,20.11
2022-08-05T21:54:55.463Z,20.11
2022-08-05T21:57:31.988Z,20.15
2022-08-05T22:00:05.356Z,20.16
2022-08-05T22:02:35.077Z,20.10
2022-08-05T22:05:04.627Z,20.07
2022-08-05T22:07:54.584Z,20.10
2022-08-05T22:10:26.818Z,20.10
2022-08-05T22:12:57.297Z,20.04
2022-08-05T22:16:01.704Z,20.07
2022-08-05T22:18:16.184Z,20.04
2022-08-05T22:20:47.460Z,20.06
2022-08-05T22:24:02.095Z,20.06
2022-08-05T22:26:49.617Z,20.02
2022-08-05T22:29:18.867Z,20.03
2022-08-05T22:31:55.215Z,20.03
2022-08-05T22:34:28.534Z,20.03
2022-08-05T22:37:03.710Z,20.00
2022-08-05T22:39:33.937Z,20.01
2022-08-05T22:42:10.314Z,19.97
2022-08-05T22:44:56.634Z,19.98
2022-08-05T22:47:29.464Z,20.01
2022-08-05T22:50:19.393Z,20.02
2022-08-05T22:52:52.438Z,20.04
2022-08-05T22:55:21.162Z,20.03
2022-08-05T22:57:50.843Z,20.03
2022-08-05T23:00:20.818Z,20.04
2022-08-05T23:02:53.031Z,20.06
2022-08-05T23:05:21.966Z,20.08
2022-08-05T23:07:54.750Z,20.04
2022-08-05T23:10:23.966Z,20.07
2022-08-05T23:12:54.218Z,20.10
2022-08-05T23:15:29.124Z,20.12
2022-08-05T23:18:03.377Z,20.13
2022-08-05T23:20:37.786Z,20.14
2022-08-05T23:23:08.160Z,20.21
2022-08-05T23:25:52.860Z,20.32
2022-08-05T23:28:24.140Z,20.34
2022-08-05T23:31:17.429Z,20.33
2022-08-05T23:34:03.735Z,20.34
2022-08-05T23:36:38.656Z,20.31
2022-08-05T23:39:07.760Z,20.27
2022-08-05T23:41:37.398Z,20.29
2022-08-05T23:44:09.081Z,20.33
2022-08-05T23:46:37.591Z,20.28
2022-08-05T23:49:16.019Z,20.25
2022-08-05T23:52:05.696Z,20.22
2022-08-05T23:54:38.329Z,20.17
2022-08-05T23:57:09.818Z,20.12
